createdAt,value
2019-06-10T00:00:01.475Z,79.11
2019-06-10T00:01:04.243Z,77.50
2019-06-10T00:02:02.539Z,75.88
2019-06-10T00:03:03.803Z,76.99
2019-06-10T00:04:05.152Z,76.48
2019-06-10T00:05:03.772Z,76.99
2019-06-10T00:06:03.796Z,77.80
2019-06-10T00:07:03.822Z,77.09
2019-06-10T00:08:03.976Z,76.89
2019-06-10T00:09:05.230Z,77.29
2019-06-10T00:10:04.123Z,76.59
2019-06-10T00:11:04.995Z,76.89
2019-06-10T00:12:04.780Z,76.99
2019-06-10T00:13:04.067Z,75.88
2019-06-10T00:14:04.552Z,75.98
2019-06-10T00:15:03.366Z,76.18
2019-06-10T00:16:05.081Z,75.88
2019-06-10T00:17:04.637Z,76.79
2019-06-10T00:18:26.919Z,75.98
2019-06-10T00:19:06.804Z,76.89
2019-06-10T00:20:06.456Z,77.19
2019-06-10T00:21:06.453Z,76.89
2019-06-10T00:22:06.588Z,76.99
2019-06-10T00:23:05.318Z,78.30
2019-06-10T00:24:07.374Z,78.50
2019-06-10T00:25:05.762Z,78.64
2019-06-10T00:26:07.605Z,78.00
2019-06-10T00:27:07.188Z,78.50
2019-06-10T00:28:06.084Z,77.90
2019-06-10T00:29:07.471Z,78.20
2019-06-10T00:30:06.524Z,77.29
2019-06-10T00:31:06.852Z,79.21
2019-06-10T00:32:08.034Z,80.43
2019-06-10T00:33:08.044Z,80.32
2019-06-10T00:34:07.505Z,80.53
2019-06-10T00:35:07.808Z,79.96
2019-06-10T00:36:09.621Z,80.46
2019-06-10T00:37:13.571Z,80.26
2019-06-10T00:38:09.340Z,79.25
2019-06-10T00:39:08.855Z,78.75
2019-06-10T00:40:10.009Z,77.94
2019-06-10T00:41:13.727Z,77.84
2019-06-10T00:42:09.737Z,77.53
2019-06-10T00:43:13.295Z,77.53
2019-06-10T00:44:08.422Z,77.64
2019-06-10T00:45:14.683Z,78.30
2019-06-10T00:46:11.843Z,77.70
2019-06-10T00:47:12.797Z,78.81
2019-06-10T00:48:21.358Z,78.10
2019-06-10T00:49:14.454Z,78.95
2019-06-10T00:50:14.297Z,78.55
2019-06-10T00:51:12.906Z,79.55
2019-06-10T00:52:12.256Z,78.64
2019-06-10T00:53:14.061Z,78.10
2019-06-10T00:54:15.097Z,78.81
2019-06-10T00:55:12.552Z,77.84
2019-06-10T00:56:13.897Z,78.50
2019-06-10T00:57:12.366Z,79.05
2019-06-10T00:58:14.095Z,78.75
2019-06-10T00:59:14.864Z,79.05
2019-06-10T01:00:44.043Z,79.19
2019-06-10T01:01:14.346Z,79.96
2019-06-10T01:02:14.293Z,80.20
2019-06-10T01:03:15.118Z,80.57
2019-06-10T01:04:16.227Z,80.36
2019-06-10T01:05:15.263Z,80.46
2019-06-10T01:06:14.884Z,80.36
2019-06-10T01:07:14.916Z,79.35
2019-06-10T01:08:15.691Z,79.11
2019-06-10T01:09:14.932Z,80.46
2019-06-10T01:10:14.657Z,80.87
2019-06-10T01:11:21.305Z,81.74
2019-06-10T01:12:14.919Z,81.84
2019-06-10T01:13:15.544Z,81.94
2019-06-10T01:14:15.369Z,82.49
2019-06-10T01:15:15.316Z,81.57
2019-06-10T01:16:15.701Z,81.37
2019-06-10T01:17:15.369Z,82.42
2019-06-10T01:18:32.061Z,82.22
2019-06-10T01:19:16.403Z,82.42
2019-06-10T01:20:37.168Z,81.85
2019-06-10T01:21:15.685Z,81.35
2019-06-10T01:22:15.859Z,81.25
2019-06-10T01:23:15.728Z,82.22
2019-06-10T01:24:17.428Z,81.82
2019-06-10T01:25:16.169Z,81.71
2019-06-10T01:26:16.453Z,81.51
2019-06-10T01:27:17.916Z,82.83
2019-06-10T01:28:16.984Z,82.02
2019-06-10T01:29:18.132Z,82.56
2019-06-10T01:30:20.553Z,81.71
2019-06-10T01:31:23.351Z,82.36
2019-06-10T01:32:18.653Z,82.76
2019-06-10T01:33:17.875Z,82.36
2019-06-10T01:34:18.388Z,82.67
2019-06-10T01:35:17.496Z,82.56
2019-06-10T01:36:20.901Z,82.67
2019-06-10T01:37:17.753Z,82.26
2019-06-10T01:38:21.094Z,82.26
2019-06-10T01:39:18.129Z,82.67
2019-06-10T01:40:20.863Z,81.96
2019-06-10T01:41:21.411Z,82.06
2019-06-10T01:42:21.464Z,82.56
2019-06-10T01:43:21.220Z,82.12
2019-06-10T01:44:18.942Z,82.62
2019-06-10T01:45:21.196Z,82.42
2019-06-10T01:46:21.174Z,82.62
2019-06-10T01:47:21.590Z,82.22
2019-06-10T01:48:20.950Z,81.51
2019-06-10T01:49:21.668Z,80.71
2019-06-10T01:50:21.746Z,80.80
2019-06-10T01:51:21.582Z,81.41
2019-06-10T01:52:22.199Z,80.80
2019-06-10T01:53:21.978Z,81.51
2019-06-10T01:54:21.612Z,82.53
2019-06-10T01:55:21.901Z,83.44
2019-06-10T01:56:21.953Z,83.64
2019-06-10T01:57:21.949Z,83.64
2019-06-10T01:58:23.633Z,82.02
2019-06-10T01:59:22.534Z,82.26
2019-06-10T02:00:25.787Z,83.37
2019-06-10T02:01:23.457Z,82.67
2019-06-10T02:02:24.088Z,82.26
2019-06-10T02:03:23.977Z,81.96
2019-06-10T02:04:24.181Z,81.85
2019-06-10T02:05:22.998Z,81.85
2019-06-10T02:06:25.627Z,82.62
2019-06-10T02:07:55.258Z,82.87
2019-06-10T02:08:23.059Z,82.12
2019-06-10T02:09:23.390Z,81.45
2019-06-10T02:10:23.426Z,83.13
2019-06-10T02:11:24.234Z,82.83
2019-06-10T02:12:24.340Z,82.83
2019-06-10T02:13:25.017Z,83.07
2019-06-10T02:14:24.724Z,81.71
2019-06-10T02:15:24.364Z,82.36
2019-06-10T02:16:24.538Z,81.35
2019-06-10T02:17:24.684Z,81.29
2019-06-10T02:18:25.745Z,82.60
2019-06-10T02:19:25.020Z,81.99
2019-06-10T02:20:25.728Z,82.26
2019-06-10T02:21:25.364Z,82.50
2019-06-10T02:22:26.221Z,83.01
2019-06-10T02:23:25.768Z,82.97
2019-06-10T02:24:26.729Z,83.17
2019-06-10T02:25:26.231Z,83.27
2019-06-10T02:26:26.252Z,82.76
2019-06-10T02:27:26.744Z,82.60
2019-06-10T02:28:26.743Z,83.41
2019-06-10T02:29:27.728Z,82.81
2019-06-10T02:30:40.117Z,83.21
2019-06-10T02:31:36.543Z,83.01
2019-06-10T02:32:36.864Z,82.90
2019-06-10T02:33:35.346Z,82.90
2019-06-10T02:34:33.104Z,84.02
2019-06-10T02:35:40.152Z,83.82
2019-06-10T02:36:35.481Z,83.92
2019-06-10T02:37:32.753Z,84.02
2019-06-10T02:38:37.813Z,84.73
2019-06-10T02:39:37.626Z,82.90
2019-06-10T02:40:33.144Z,83.51
2019-06-10T02:41:56.306Z,83.51
2019-06-10T02:42:30.963Z,84.77
2019-06-10T02:43:33.353Z,84.53
2019-06-10T02:44:36.414Z,83.72
2019-06-10T02:45:37.005Z,83.86
2019-06-10T02:46:35.966Z,84.02
2019-06-10T02:47:36.998Z,84.36
2019-06-10T02:48:35.118Z,85.33
2019-06-10T02:49:51.588Z,85.44
2019-06-10T02:50:36.395Z,85.44
2019-06-10T02:51:35.418Z,84.83
2019-06-10T02:52:37.661Z,85.44
2019-06-10T02:53:35.898Z,85.13
2019-06-10T02:54:35.807Z,85.54
2019-06-10T02:55:35.132Z,84.93
2019-06-10T02:56:36.399Z,84.97
2019-06-10T02:57:39.724Z,85.38
2019-06-10T02:58:39.011Z,85.17
2019-06-10T02:59:36.365Z,85.33
2019-06-10T03:00:39.711Z,85.78
2019-06-10T03:01:38.231Z,85.88
2019-06-10T03:02:36.325Z,85.88
2019-06-10T03:03:42.348Z,86.90
2019-06-10T03:04:37.720Z,87.40
2019-06-10T03:05:40.540Z,86.29
2019-06-10T03:06:39.801Z,86.29
2019-06-10T03:07:35.528Z,86.45
2019-06-10T03:08:36.587Z,85.74
2019-06-10T03:09:35.891Z,85.78
2019-06-10T03:10:37.217Z,84.83
2019-06-10T03:11:37.223Z,83.96
2019-06-10T03:12:35.255Z,83.72
2019-06-10T03:13:35.263Z,83.55
2019-06-10T03:14:35.262Z,84.16
2019-06-10T03:15:34.655Z,84.83
2019-06-10T03:16:34.865Z,84.97
2019-06-10T03:17:35.771Z,85.54
2019-06-10T03:18:35.154Z,85.48
2019-06-10T03:19:46.919Z,85.07
2019-06-10T03:20:37.500Z,84.97
2019-06-10T03:21:35.791Z,84.56
2019-06-10T03:22:36.774Z,84.56
2019-06-10T03:23:36.771Z,84.87
2019-06-10T03:24:36.268Z,84.97
2019-06-10T03:25:36.406Z,84.56
2019-06-10T03:26:36.591Z,84.77
2019-06-10T03:27:36.751Z,84.77
2019-06-10T03:28:36.888Z,84.87
2019-06-10T03:29:37.025Z,85.78
2019-06-10T03:30:47.889Z,85.38
2019-06-10T03:31:43.211Z,86.19
2019-06-10T03:32:42.674Z,85.88
2019-06-10T03:33:41.834Z,85.78
2019-06-10T03:34:45.881Z,85.58
2019-06-10T03:35:42.318Z,85.58
2019-06-10T03:36:38.479Z,85.27
2019-06-10T03:37:38.640Z,85.38
2019-06-10T03:38:38.774Z,85.07
2019-06-10T03:39:38.936Z,84.27
2019-06-10T03:40:39.771Z,84.12
2019-06-10T03:41:42.218Z,83.21
2019-06-10T03:42:39.510Z,83.21
2019-06-10T03:43:39.669Z,83.11
2019-06-10T03:44:39.829Z,83.01
2019-06-10T03:45:42.428Z,83.41
2019-06-10T03:46:42.906Z,84.42
2019-06-10T03:47:42.498Z,83.92
2019-06-10T03:48:43.087Z,83.61
2019-06-10T03:49:49.957Z,83.31
2019-06-10T03:50:43.190Z,83.21
2019-06-10T03:51:42.808Z,84.06
2019-06-10T03:52:43.266Z,83.82
2019-06-10T03:53:42.853Z,84.12
2019-06-10T03:54:43.229Z,84.53
2019-06-10T03:55:43.284Z,84.02
2019-06-10T03:56:43.053Z,83.72
2019-06-10T03:57:43.091Z,84.73
2019-06-10T03:58:43.027Z,84.22
2019-06-10T03:59:43.452Z,85.74
2019-06-10T04:00:43.148Z,85.54
2019-06-10T04:01:43.717Z,85.54
2019-06-10T04:02:43.181Z,85.94
2019-06-10T04:03:44.774Z,85.64
2019-06-10T04:04:43.787Z,84.73
2019-06-10T04:05:43.327Z,84.63
2019-06-10T04:06:44.533Z,83.21
2019-06-10T04:07:43.691Z,83.31
2019-06-10T04:08:44.297Z,83.21
2019-06-10T04:09:44.779Z,83.51
2019-06-10T04:10:44.288Z,84.02
2019-06-10T04:11:44.496Z,85.10
2019-06-10T04:12:44.671Z,84.63
2019-06-10T04:13:45.287Z,84.39
2019-06-10T04:14:45.063Z,83.17
2019-06-10T04:15:45.787Z,83.88
2019-06-10T04:16:45.448Z,83.92
2019-06-10T04:17:45.609Z,84.08
2019-06-10T04:18:45.790Z,83.68
2019-06-10T04:19:45.936Z,84.79
2019-06-10T04:20:46.797Z,83.47
2019-06-10T04:22:19.623Z,83.58
2019-06-10T04:22:46.521Z,84.89
2019-06-10T04:23:46.681Z,85.50
2019-06-10T04:24:46.812Z,84.79
2019-06-10T04:25:47.832Z,85.10
2019-06-10T04:26:47.222Z,84.19
2019-06-10T04:27:47.368Z,85.19
2019-06-10T04:28:47.553Z,83.58
2019-06-10T04:29:47.828Z,83.78
2019-06-10T04:30:48.830Z,83.58
2019-06-10T04:31:48.066Z,83.88
2019-06-10T04:32:48.199Z,83.88
2019-06-10T04:33:49.332Z,84.14
2019-06-10T04:34:48.609Z,83.33
2019-06-10T04:35:48.789Z,83.13
2019-06-10T04:36:48.950Z,84.04
2019-06-10T04:37:51.923Z,83.23
2019-06-10T04:38:49.289Z,83.64
2019-06-10T04:39:49.837Z,83.54
2019-06-10T04:40:49.866Z,83.94
2019-06-10T04:41:49.780Z,83.54
2019-06-10T04:42:52.394Z,84.89
2019-06-10T04:43:50.171Z,83.94
2019-06-10T04:44:52.538Z,83.17
2019-06-10T04:45:52.776Z,84.28
2019-06-10T04:46:52.098Z,83.84
2019-06-10T04:47:52.449Z,84.81
2019-06-10T04:48:53.179Z,83.80
2019-06-10T04:49:52.399Z,83.15
2019-06-10T04:50:53.350Z,82.14
2019-06-10T04:51:52.791Z,80.73
2019-06-10T04:52:52.949Z,80.53
2019-06-10T04:53:53.108Z,82.45
2019-06-10T04:55:26.192Z,82.35
2019-06-10T04:55:52.377Z,81.78
2019-06-10T04:56:53.004Z,82.39
2019-06-10T04:57:54.359Z,83.36
2019-06-10T04:58:52.834Z,82.69
2019-06-10T04:59:53.871Z,82.45
2019-06-10T05:00:53.114Z,82.01
2019-06-10T05:01:53.263Z,82.55
2019-06-10T05:02:54.426Z,81.74
2019-06-10T05:03:54.365Z,82.04
2019-06-10T05:04:53.884Z,82.14
2019-06-10T05:05:54.864Z,80.83
2019-06-10T05:06:54.263Z,80.46
2019-06-10T05:07:54.431Z,81.68
2019-06-10T05:08:54.604Z,82.28
2019-06-10T05:09:54.758Z,82.35
2019-06-10T05:10:54.896Z,81.34
2019-06-10T05:11:56.379Z,80.93
2019-06-10T05:12:55.250Z,80.90
2019-06-10T05:13:55.458Z,81.30
2019-06-10T05:14:55.619Z,80.05
2019-06-10T05:15:55.784Z,80.15
2019-06-10T05:16:56.371Z,79.24
2019-06-10T05:17:56.880Z,79.30
2019-06-10T05:18:56.251Z,78.09
2019-06-10T05:19:56.399Z,78.50
2019-06-10T05:20:58.701Z,77.79
2019-06-10T05:21:57.883Z,78.50
2019-06-10T05:22:57.027Z,76.84
2019-06-10T05:23:57.863Z,78.30
2019-06-10T05:24:57.391Z,76.88
2019-06-10T05:25:58.370Z,77.49
2019-06-10T05:26:58.382Z,76.88
2019-06-10T05:27:58.380Z,77.99
2019-06-10T05:29:31.215Z,78.36
2019-06-10T05:29:58.176Z,78.39
2019-06-10T05:30:58.336Z,78.59
2019-06-10T05:31:58.533Z,78.19
2019-06-10T05:32:59.402Z,78.19
2019-06-10T05:34:02.236Z,78.26
2019-06-10T05:34:59.129Z,78.50
2019-06-10T05:36:02.296Z,79.30
2019-06-10T05:36:59.489Z,78.76
2019-06-10T05:38:02.246Z,77.35
2019-06-10T05:38:59.833Z,76.84
2019-06-10T05:40:02.064Z,77.92
2019-06-10T05:41:02.625Z,77.42
2019-06-10T05:42:00.266Z,75.40
2019-06-10T05:43:02.468Z,75.60
2019-06-10T05:44:02.757Z,75.94
2019-06-10T05:45:03.167Z,77.15
2019-06-10T05:46:02.878Z,77.08
2019-06-10T05:47:03.581Z,76.64
2019-06-10T05:48:02.971Z,75.94
2019-06-10T05:49:03.043Z,75.76
2019-06-10T05:50:03.384Z,74.63
2019-06-10T05:51:06.334Z,74.73
2019-06-10T05:52:03.437Z,75.60
2019-06-10T05:53:02.562Z,73.95
2019-06-10T05:54:03.923Z,72.88
2019-06-10T05:55:02.999Z,72.34
2019-06-10T05:56:03.753Z,72.34
2019-06-10T05:57:02.890Z,71.09
2019-06-10T05:58:03.912Z,70.50
2019-06-10T05:59:04.444Z,70.76
2019-06-10T06:00:11.414Z,69.99
2019-06-10T06:01:05.618Z,69.06
2019-06-10T06:02:03.754Z,69.99
2019-06-10T06:03:37.031Z,70.09
2019-06-10T06:04:04.149Z,70.16
2019-06-10T06:05:04.314Z,69.25
2019-06-10T06:06:04.495Z,69.22
2019-06-10T06:07:04.674Z,69.72
2019-06-10T06:08:08.631Z,71.16
2019-06-10T06:09:06.070Z,70.12
2019-06-10T06:10:05.937Z,70.19
2019-06-10T06:11:05.488Z,69.56
2019-06-10T06:12:06.438Z,69.22
2019-06-10T06:13:05.833Z,67.82
2019-06-10T06:14:06.018Z,68.08
2019-06-10T06:15:06.199Z,67.61
2019-06-10T06:16:06.468Z,68.79
2019-06-10T06:17:06.948Z,70.36
2019-06-10T06:18:10.430Z,71.73
2019-06-10T06:19:09.437Z,73.08
2019-06-10T06:20:07.065Z,74.38
2019-06-10T06:21:20.777Z,73.61
2019-06-10T06:22:07.405Z,74.49
2019-06-10T06:23:09.108Z,74.49
2019-06-10T06:24:08.691Z,73.04
2019-06-10T06:25:08.443Z,73.55
2019-06-10T06:26:07.961Z,74.15
2019-06-10T06:27:08.468Z,75.22
2019-06-10T06:28:08.348Z,73.07
2019-06-10T06:29:09.448Z,71.67
2019-06-10T06:30:14.728Z,71.60
2019-06-10T06:31:12.755Z,71.40
2019-06-10T06:32:09.137Z,72.10
2019-06-10T06:33:09.500Z,71.53
2019-06-10T06:34:09.394Z,71.50
2019-06-10T06:35:09.542Z,72.17
2019-06-10T06:36:42.870Z,71.56
2019-06-10T06:37:09.881Z,72.07
2019-06-10T06:38:10.041Z,71.33
2019-06-10T06:39:12.889Z,69.42
2019-06-10T06:40:13.058Z,70.46
2019-06-10T06:41:13.678Z,73.74
2019-06-10T06:42:12.664Z,71.60
2019-06-10T06:43:12.048Z,71.03
2019-06-10T06:44:13.051Z,72.64
2019-06-10T06:45:12.319Z,70.73
2019-06-10T06:46:12.932Z,70.26
2019-06-10T06:47:13.218Z,71.40
2019-06-10T06:48:12.838Z,73.07
2019-06-10T06:49:12.927Z,73.34
2019-06-10T06:50:13.995Z,70.93
2019-06-10T06:51:12.948Z,71.60
2019-06-10T06:52:13.504Z,70.46
2019-06-10T06:53:25.783Z,70.66
2019-06-10T06:54:14.861Z,69.76
2019-06-10T06:55:12.987Z,70.66
2019-06-10T06:56:13.192Z,70.23
2019-06-10T06:57:13.381Z,68.99
2019-06-10T06:58:13.559Z,70.43
2019-06-10T06:59:14.002Z,71.36
2019-06-10T07:00:35.276Z,71.33
2019-06-10T07:01:16.157Z,72.40
2019-06-10T07:02:14.989Z,72.00
2019-06-10T07:03:14.614Z,71.56
2019-06-10T07:04:14.804Z,70.23
2019-06-10T07:05:15.501Z,68.72
2019-06-10T07:06:15.138Z,69.06
2019-06-10T07:07:15.298Z,69.92
2019-06-10T07:08:16.010Z,68.19
2019-06-10T07:09:15.660Z,69.16
2019-06-10T07:10:49.231Z,69.76
2019-06-10T07:11:15.982Z,68.02
2019-06-10T07:12:16.158Z,66.35
2019-06-10T07:13:17.033Z,66.68
2019-06-10T07:14:16.546Z,68.42
2019-06-10T07:15:16.592Z,67.76
2019-06-10T07:16:17.534Z,66.15
2019-06-10T07:17:16.970Z,70.16
2019-06-10T07:18:17.151Z,67.29
2019-06-10T07:19:17.541Z,68.96
2019-06-10T07:20:18.040Z,65.05
2019-06-10T07:21:18.528Z,66.28
2019-06-10T07:22:18.541Z,65.25
2019-06-10T07:23:18.068Z,64.09
2019-06-10T07:24:18.544Z,62.66
2019-06-10T07:25:18.375Z,61.63
2019-06-10T07:26:18.574Z,61.69
2019-06-10T07:27:19.528Z,62.92
2019-06-10T07:28:18.958Z,64.42
2019-06-10T07:29:19.173Z,65.52
2019-06-10T07:30:19.416Z,63.89
2019-06-10T07:31:23.770Z,63.19
2019-06-10T07:32:22.786Z,63.39
2019-06-10T07:33:22.676Z,66.26
2019-06-10T07:34:22.262Z,66.59
2019-06-10T07:35:22.178Z,63.39
2019-06-10T07:36:23.299Z,63.02
2019-06-10T07:37:22.993Z,63.92
2019-06-10T07:38:23.082Z,61.73
2019-06-10T07:39:23.525Z,60.28
2019-06-10T07:40:22.320Z,60.63
2019-06-10T07:41:23.158Z,60.28
2019-06-10T07:42:22.877Z,60.33
2019-06-10T07:43:23.123Z,61.36
2019-06-10T07:44:22.816Z,63.53
2019-06-10T07:45:22.550Z,61.43
2019-06-10T07:46:23.089Z,60.46
2019-06-10T07:47:23.337Z,62.73
2019-06-10T07:48:22.415Z,61.57
2019-06-10T07:49:23.971Z,62.60
2019-06-10T07:50:23.793Z,61.21
2019-06-10T07:51:22.963Z,59.74
2019-06-10T07:52:23.679Z,60.66
2019-06-10T07:53:25.045Z,61.46
2019-06-10T07:54:24.044Z,61.66
2019-06-10T07:55:23.565Z,62.70
2019-06-10T07:56:24.059Z,62.25
2019-06-10T07:57:23.967Z,62.75
2019-06-10T07:58:24.137Z,63.15
2019-06-10T07:59:25.322Z,64.12
2019-06-10T08:00:24.448Z,62.42
2019-06-10T08:01:24.626Z,63.75
2019-06-10T08:02:24.841Z,63.06
2019-06-10T08:03:24.997Z,64.75
2019-06-10T08:04:25.132Z,64.36
2019-06-10T08:05:25.296Z,63.17
2019-06-10T08:06:25.434Z,61.60
2019-06-10T08:07:25.621Z,62.18
2019-06-10T08:08:25.777Z,62.50
2019-06-10T08:09:25.936Z,61.90
2019-06-10T08:10:26.103Z,61.47
2019-06-10T08:11:26.284Z,61.93
2019-06-10T08:12:26.571Z,62.49
2019-06-10T08:13:26.623Z,64.29
2019-06-10T08:14:26.823Z,62.89
2019-06-10T08:15:27.552Z,61.99
2019-06-10T08:16:27.224Z,63.96
2019-06-10T08:17:27.453Z,63.17
2019-06-10T08:18:27.621Z,61.36
2019-06-10T08:19:34.820Z,62.60
2019-06-10T08:20:32.570Z,61.09
2019-06-10T08:21:28.248Z,58.84
2019-06-10T08:22:33.510Z,60.68
2019-06-10T08:23:32.876Z,58.07
2019-06-10T08:24:28.752Z,58.57
2019-06-10T08:25:28.930Z,60.12
2019-06-10T08:26:29.067Z,61.04
2019-06-10T08:27:29.214Z,61.63
2019-06-10T08:28:29.411Z,61.87
2019-06-10T08:29:29.593Z,60.71
2019-06-10T08:30:29.761Z,60.91
2019-06-10T08:31:29.943Z,59.25
2019-06-10T08:32:30.128Z,58.58
2019-06-10T08:33:32.816Z,58.92
2019-06-10T08:34:32.776Z,57.35
2019-06-10T08:35:39.517Z,56.75
2019-06-10T08:36:33.357Z,55.85
2019-06-10T08:37:33.220Z,57.60
2019-06-10T08:38:32.958Z,59.62
2019-06-10T08:39:33.478Z,57.90
2019-06-10T08:40:53.667Z,57.67
2019-06-10T08:41:32.299Z,56.87
2019-06-10T08:42:33.122Z,55.58
2019-06-10T08:43:33.112Z,56.87
2019-06-10T08:44:33.417Z,59.04
2019-06-10T08:45:33.356Z,56.77
2019-06-10T08:46:33.794Z,56.40
2019-06-10T08:47:33.565Z,54.88
2019-06-10T08:48:33.196Z,58.45
2019-06-10T08:49:33.247Z,57.14
2019-06-10T08:50:33.800Z,54.90
2019-06-10T08:51:34.612Z,58.61
2019-06-10T08:52:50.530Z,56.55
2019-06-10T08:53:37.341Z,58.31
2019-06-10T08:54:34.205Z,57.94
2019-06-10T08:55:34.419Z,57.59
2019-06-10T08:56:34.614Z,56.27
2019-06-10T08:57:34.809Z,55.55
2019-06-10T08:58:35.575Z,57.24
2019-06-10T08:59:35.113Z,61.87
2019-06-10T09:00:35.324Z,59.05
2019-06-10T09:01:35.507Z,55.44
2019-06-10T09:02:35.674Z,53.21
2019-06-10T09:03:35.835Z,53.98
2019-06-10T09:04:38.735Z,58.70
2019-06-10T09:05:38.713Z,51.50
2019-06-10T09:06:36.438Z,51.10
2019-06-10T09:07:38.189Z,53.31
2019-06-10T09:08:39.635Z,54.25
2019-06-10T09:09:39.283Z,56.02
2019-06-10T09:10:39.511Z,56.74
2019-06-10T09:11:39.149Z,55.49
2019-06-10T09:12:38.441Z,53.06
2019-06-10T09:13:38.123Z,53.14
2019-06-10T09:14:38.662Z,54.83
2019-06-10T09:15:38.745Z,57.12
2019-06-10T09:16:39.635Z,58.04
2019-06-10T09:17:40.187Z,56.32
2019-06-10T09:18:41.144Z,55.35
2019-06-10T09:19:40.266Z,57.82
2019-06-10T09:20:41.470Z,56.67
2019-06-10T09:21:41.676Z,55.47
2019-06-10T09:22:42.236Z,58.50
2019-06-10T09:23:41.114Z,52.72
2019-06-10T09:24:40.885Z,50.48
2019-06-10T09:25:41.621Z,52.19
2019-06-10T09:26:45.128Z,54.50
2019-06-10T09:27:44.652Z,47.81
2019-06-10T09:28:45.000Z,48.38
2019-06-10T09:29:48.022Z,48.06
2019-06-10T09:30:47.715Z,48.46
2019-06-10T09:31:46.815Z,48.85
2019-06-10T09:32:48.451Z,47.99
2019-06-10T09:33:49.905Z,46.96
2019-06-10T09:34:51.552Z,46.03
2019-06-10T09:35:46.147Z,44.53
2019-06-10T09:36:49.344Z,47.28
2019-06-10T09:37:48.384Z,46.69
2019-06-10T09:38:48.282Z,46.45
2019-06-10T09:39:51.762Z,49.18
2019-06-10T09:40:48.416Z,46.00
2019-06-10T09:41:55.380Z,44.48
2019-06-10T09:42:48.125Z,45.37
2019-06-10T09:43:50.042Z,48.18
2019-06-10T09:44:48.655Z,52.04
2019-06-10T09:45:47.499Z,52.72
2019-06-10T09:46:47.712Z,51.12
2019-06-10T09:47:47.122Z,53.28
2019-06-10T09:48:49.760Z,53.28
2019-06-10T09:49:49.170Z,51.60
2019-06-10T09:50:50.449Z,51.92
2019-06-10T09:51:50.622Z,51.40
2019-06-10T09:52:50.824Z,53.58
2019-06-10T09:53:56.013Z,51.25
2019-06-10T09:54:51.730Z,48.13
2019-06-10T09:55:50.798Z,49.10
2019-06-10T09:56:50.157Z,49.66
2019-06-10T09:57:49.133Z,51.20
2019-06-10T09:58:50.870Z,49.39
2019-06-10T09:59:51.390Z,49.66
2019-06-10T10:00:52.409Z,48.57
2019-06-10T10:01:52.334Z,49.63
2019-06-10T10:02:52.053Z,50.63
2019-06-10T10:03:53.862Z,51.79
2019-06-10T10:04:53.894Z,48.65
2019-06-10T10:05:59.418Z,47.29
2019-06-10T10:06:52.424Z,46.72
2019-06-10T10:07:52.958Z,49.17
2019-06-10T10:08:56.245Z,48.26
2019-06-10T10:09:52.905Z,47.17
2019-06-10T10:10:56.277Z,48.88
2019-06-10T10:11:55.041Z,49.40
2019-06-10T10:12:52.243Z,46.69
2019-06-10T10:13:49.934Z,44.18
2019-06-10T10:14:54.243Z,42.79
2019-06-10T10:15:53.888Z,42.85
2019-06-10T10:16:58.692Z,44.53
2019-06-10T10:17:56.221Z,45.56
2019-06-10T10:18:57.522Z,47.14
2019-06-10T10:19:56.669Z,48.54
2019-06-10T10:20:56.080Z,49.71
2019-06-10T10:21:58.197Z,55.19
2019-06-10T10:22:55.158Z,48.03
2019-06-10T10:24:06.278Z,44.51
2019-06-10T10:24:56.666Z,43.93
2019-06-10T10:25:56.748Z,43.05
2019-06-10T10:26:57.304Z,44.50
2019-06-10T10:27:57.432Z,46.98
2019-06-10T10:28:57.064Z,48.62
2019-06-10T10:29:56.997Z,48.92
2019-06-10T10:30:57.368Z,48.55
2019-06-10T10:32:24.951Z,49.59
2019-06-10T10:32:53.978Z,49.54
2019-06-10T10:33:52.954Z,51.32
2019-06-10T10:34:56.335Z,49.34
2019-06-10T10:35:54.361Z,49.54
2019-06-10T10:36:56.748Z,51.87
2019-06-10T10:37:55.809Z,54.65
2019-06-10T10:38:53.999Z,53.16
2019-06-10T10:39:56.450Z,49.76
2019-06-10T10:40:58.627Z,53.44
2019-06-10T10:41:57.210Z,50.63
2019-06-10T10:43:10.118Z,49.11
2019-06-10T10:43:58.527Z,51.05
2019-06-10T10:44:59.118Z,52.24
2019-06-10T10:46:00.178Z,51.54
2019-06-10T10:46:57.523Z,57.58
2019-06-10T10:47:57.562Z,54.82
2019-06-10T10:48:57.161Z,52.49
2019-06-10T10:49:57.102Z,51.97
2019-06-10T10:50:57.205Z,51.72
2019-06-10T10:51:56.674Z,54.96
2019-06-10T10:52:56.471Z,53.34
2019-06-10T10:54:20.416Z,53.46
2019-06-10T10:54:58.822Z,53.04
2019-06-10T10:55:56.954Z,53.46
2019-06-10T10:56:59.098Z,54.36
2019-06-10T10:57:59.156Z,53.59
2019-06-10T10:58:58.535Z,54.86
2019-06-10T10:59:59.647Z,55.35
2019-06-10T11:00:58.202Z,54.73
2019-06-10T11:01:58.286Z,55.00
2019-06-10T11:02:58.473Z,52.86
2019-06-10T11:03:59.402Z,55.95
2019-06-10T11:05:33.259Z,55.90
2019-06-10T11:06:01.104Z,53.24
2019-06-10T11:07:01.178Z,52.72
2019-06-10T11:08:00.351Z,56.47
2019-06-10T11:09:00.192Z,54.48
2019-06-10T11:10:03.618Z,53.41
2019-06-10T11:11:03.565Z,53.19
2019-06-10T11:12:02.891Z,51.20
2019-06-10T11:13:02.424Z,52.76
2019-06-10T11:14:03.524Z,48.77
2019-06-10T11:15:04.576Z,51.20
2019-06-10T11:16:03.545Z,48.97
2019-06-10T11:17:02.870Z,51.23
2019-06-10T11:18:03.858Z,52.96
2019-06-10T11:19:02.730Z,50.45
2019-06-10T11:20:03.811Z,47.83
2019-06-10T11:21:05.109Z,47.75
2019-06-10T11:22:03.169Z,47.22
2019-06-10T11:23:03.026Z,47.44
2019-06-10T11:24:04.849Z,45.68
2019-06-10T11:25:04.192Z,45.49
2019-06-10T11:26:02.828Z,45.09
2019-06-10T11:27:03.692Z,47.17
2019-06-10T11:28:03.994Z,48.02
2019-06-10T11:29:04.706Z,46.67
2019-06-10T11:30:04.187Z,45.68
2019-06-10T11:31:04.697Z,49.60
2019-06-10T11:32:03.946Z,42.79
2019-06-10T11:33:04.141Z,44.40
2019-06-10T11:34:04.710Z,47.59
2019-06-10T11:35:05.188Z,45.27
2019-06-10T11:36:04.689Z,45.42
2019-06-10T11:37:04.849Z,42.85
2019-06-10T11:38:05.697Z,46.08
2019-06-10T11:39:38.742Z,44.12
2019-06-10T11:40:05.452Z,42.04
2019-06-10T11:41:05.605Z,43.21
2019-06-10T11:42:05.768Z,44.23
2019-06-10T11:43:06.735Z,47.49
2019-06-10T11:44:06.238Z,49.05
2019-06-10T11:45:06.281Z,48.25
2019-06-10T11:46:07.773Z,46.52
2019-06-10T11:47:07.643Z,47.04
2019-06-10T11:48:06.944Z,48.18
2019-06-10T11:49:07.021Z,49.41
2019-06-10T11:50:07.166Z,49.68
2019-06-10T11:51:07.346Z,49.16
2019-06-10T11:52:08.233Z,49.26
2019-06-10T11:53:07.634Z,49.16
2019-06-10T11:54:07.827Z,48.66
2019-06-10T11:55:15.246Z,49.11
2019-06-10T11:56:10.140Z,50.70
2019-06-10T11:57:08.277Z,48.77
2019-06-10T11:58:08.447Z,49.34
2019-06-10T11:59:10.146Z,47.41
2019-06-10T12:00:14.782Z,47.49
2019-06-10T12:01:12.989Z,51.12
2019-06-10T12:02:09.084Z,48.20
2019-06-10T12:03:09.272Z,50.11
2019-06-10T12:04:09.478Z,48.99
2019-06-10T12:05:12.844Z,49.17
2019-06-10T12:06:13.295Z,49.51
2019-06-10T12:07:09.947Z,49.46
2019-06-10T12:08:13.104Z,47.16
2019-06-10T12:09:10.344Z,48.38
2019-06-10T12:10:12.670Z,50.36
2019-06-10T12:11:12.620Z,47.73
2019-06-10T12:12:44.176Z,48.65
2019-06-10T12:13:13.237Z,48.42
2019-06-10T12:14:12.877Z,48.47
2019-06-10T12:15:12.470Z,48.79
2019-06-10T12:17:11.325Z,49.54
2019-06-10T12:17:32.461Z,49.07
2019-06-10T12:18:14.802Z,48.47
2019-06-10T12:19:12.764Z,49.66
2019-06-10T12:20:13.430Z,49.78
2019-06-10T12:21:13.504Z,49.51
2019-06-10T12:22:13.345Z,51.89
2019-06-10T12:23:13.655Z,50.58
2019-06-10T12:24:12.994Z,49.38
2019-06-10T12:25:31.316Z,49.21
2019-06-10T12:26:15.274Z,49.01
2019-06-10T12:27:14.292Z,50.45
2019-06-10T12:28:14.292Z,52.98
2019-06-10T12:29:13.680Z,52.07
2019-06-10T12:30:14.429Z,48.38
2019-06-10T12:31:14.027Z,48.08
2019-06-10T12:32:14.720Z,49.62
2019-06-10T12:33:21.597Z,48.40
2019-06-10T12:34:17.299Z,46.55
2019-06-10T12:35:14.766Z,46.50
2019-06-10T12:36:15.801Z,46.53
2019-06-10T12:37:16.044Z,47.67
2019-06-10T12:38:16.795Z,44.87
2019-06-10T12:39:17.369Z,44.07
2019-06-10T12:40:16.586Z,43.74
2019-06-10T12:41:16.312Z,45.67
2019-06-10T12:42:16.013Z,46.47
2019-06-10T12:43:16.178Z,46.98
2019-06-10T12:44:16.346Z,47.22
2019-06-10T12:45:17.303Z,46.18
2019-06-10T12:46:49.732Z,46.52
2019-06-10T12:47:16.933Z,44.94
2019-06-10T12:48:17.021Z,46.84
2019-06-10T12:49:18.545Z,48.90
2019-06-10T12:50:18.340Z,47.09
2019-06-10T12:51:18.357Z,48.26
2019-06-10T12:52:17.652Z,46.94
2019-06-10T12:53:17.844Z,46.71
2019-06-10T12:54:18.362Z,51.57